Time;durP1;ratioP1;P1;durP2;ratioP2;P2;SDS_P1;SDS_P2;PMS_P1;PMS_P2;Temp;Humidity;BMP_temperature;BMP_pressure;BME280_temperature;BME280_humidity;BME280_pressure;Samples;Min_cycle;Max_cycle;Signal;HPM_P1;HPM_P2
2021/08/11 00:00:23;;;;;;;17.25;15.07;;;14.70;99.90;;;;;;5055004;28;20653;-70
2021/08/11 00:02:50;;;;;;;18.85;15.52;;;14.60;99.90;;;;;;5049962;28;20593;-69
2021/08/11 00:05:17;;;;;;;19.90;16.52;;;14.60;99.90;;;;;;5044716;28;20200;-70
2021/08/11 00:07:44;;;;;;;19.77;16.13;;;14.60;99.90;;;;;;5050826;28;20227;-72
2021/08/11 00:10:12;;;;;;;21.95;15.70;;;14.60;99.90;;;;;;5045943;28;20216;-69
2021/08/11 00:12:39;;;;;;;20.58;16.67;;;14.60;99.90;;;;;;5053631;28;20208;-70
2021/08/11 00:15:08;;;;;;;31.50;16.98;;;14.60;99.90;;;;;;5050625;28;20195;-71
2021/08/11 00:17:37;;;;;;;22.17;17.88;;;14.60;99.90;;;;;;5053238;28;20227;-70
2021/08/11 00:20:06;;;;;;;23.02;18.20;;;14.60;99.90;;;;;;5057311;28;20200;-69
2021/08/11 00:22:33;;;;;;;23.58;19.45;;;14.50;99.90;;;;;;5046966;28;20227;-69
2021/08/11 00:25:00;;;;;;;24.60;19.10;;;14.50;99.90;;;;;;5051370;28;20203;-69
2021/08/11 00:27:27;;;;;;;24.50;17.90;;;14.50;99.90;;;;;;5048866;28;20227;-68
2021/08/11 00:29:54;;;;;;;24.50;18.38;;;14.50;99.90;;;;;;5054354;28;20203;-69
2021/08/11 00:32:27;;;;;;;30.13;21.55;;;14.50;99.90;;;;;;5047254;28;20222;-69
2021/08/11 00:34:55;;;;;;;26.27;19.85;;;14.40;99.90;;;;;;5047670;28;20203;-68
2021/08/11 00:37:24;;;;;;;29.45;21.10;;;14.40;99.90;;;;;;5048615;28;20196;-68
2021/08/11 00:39:52;;;;;;;25.60;20.92;;;14.40;99.90;;;;;;5057907;28;20206;-68
2021/08/11 00:42:19;;;;;;;26.95;22.15;;;14.40;99.90;;;;;;5052952;28;20601;-69
2021/08/11 00:44:46;;;;;;;29.27;20.95;;;14.40;99.90;;;;;;5049852;28;20199;-68
2021/08/11 00:47:13;;;;;;;26.80;21.52;;;14.40;99.90;;;;;;5053116;28;20566;-69
2021/08/11 00:49:42;;;;;;;29.77;23.77;;;14.30;99.90;;;;;;5046139;28;20196;-68
2021/08/11 00:52:11;;;;;;;27.05;21.27;;;14.30;99.90;;;;;;5051326;28;20203;-69
2021/08/11 00:54:38;;;;;;;32.60;22.05;;;14.30;99.90;;;;;;5053533;28;20215;-68
2021/08/11 00:57:08;;;;;;;30.40;22.60;;;14.30;99.90;;;;;;5053695;28;20216;-68
2021/08/11 00:59:38;;;;;;;31.38;24.48;;;14.30;99.90;;;;;;5049812;28;20214;-69
2021/08/11 01:02:07;;;;;;;32.58;22.70;;;14.30;99.90;;;;;;5053019;28;20230;-68
2021/08/11 01:04:35;;;;;;;27.30;22.95;;;14.30;99.90;;;;;;5053154;28;20200;-68
2021/08/11 01:07:04;;;;;;;32.80;21.40;;;14.30;99.90;;;;;;5048720;28;20196;-69
2021/08/11 01:09:33;;;;;;;28.40;21.27;;;14.30;99.90;;;;;;5047599;28;20230;-69
2021/08/11 01:12:02;;;;;;;28.55;22.48;;;14.30;99.90;;;;;;5051575;28;20200;-69
2021/08/11 01:14:30;;;;;;;30.35;22.05;;;14.30;99.90;;;;;;5052648;28;20196;-68
2021/08/11 01:16:58;;;;;;;29.50;21.60;;;14.30;99.90;;;;;;5047505;28;20204;-69
2021/08/11 01:19:25;;;;;;;25.75;20.05;;;14.30;99.90;;;;;;5046873;28;20226;-69
2021/08/11 01:21:58;;;;;;;26.48;21.38;;;14.30;99.90;;;;;;5052294;28;20670;-69
2021/08/11 01:24:31;;;;;;;31.65;21.00;;;14.30;99.90;;;;;;5045519;28;20203;-69
2021/08/11 01:27:45;;;;;;;30.73;22.58;;;14.30;99.90;;;;;;5053144;28;20557;-68
2021/08/11 01:30:18;;;;;;;40.17;23.63;;;14.30;99.90;;;;;;5037178;28;20217;-69
2021/08/11 01:33:07;;;;;;;27.60;23.90;;;14.30;99.90;;;;;;5055463;28;20293;-68
2021/08/11 01:35:40;;;;;;;32.88;22.85;;;14.30;99.90;;;;;;5049222;28;20674;-68
2021/08/11 01:38:13;;;;;;;31.60;22.63;;;14.30;99.90;;;;;;5034735;28;20227;-69
2021/08/11 01:40:46;;;;;;;32.60;25.02;;;14.40;99.90;;;;;;5050502;28;20200;-68
2021/08/11 01:43:14;;;;;;;31.88;24.75;;;14.30;99.90;;;;;;5050988;28;20223;-69
2021/08/11 01:45:42;;;;;;;35.42;25.90;;;14.30;99.90;;;;;;5052611;28;20199;-68
2021/08/11 01:48:13;;;;;;;38.17;26.45;;;14.30;99.90;;;;;;5052352;28;20216;-68
2021/08/11 01:50:46;;;;;;;36.33;23.42;;;14.30;99.90;;;;;;5052295;28;20673;-69
2021/08/11 01:53:18;;;;;;;33.25;24.38;;;14.30;99.90;;;;;;5049403;28;20231;-69
2021/08/11 01:55:47;;;;;;;36.30;25.40;;;14.20;99.90;;;;;;5048748;28;20203;-69
2021/08/11 01:58:15;;;;;;;30.25;23.60;;;14.30;99.90;;;;;;5045602;28;20220;-69
2021/08/11 02:00:42;;;;;;;35.83;25.95;;;14.20;99.90;;;;;;5049374;28;20207;-69
2021/08/11 02:03:10;;;;;;;31.42;23.63;;;14.20;99.90;;;;;;5044091;28;20220;-69
2021/08/11 02:05:38;;;;;;;25.63;20.92;;;14.20;99.90;;;;;;5051416;28;20218;-69
2021/08/11 02:08:09;;;;;;;33.05;25.05;;;14.30;99.90;;;;;;5052594;28;20224;-69
2021/08/11 02:10:37;;;;;;;39.38;27.45;;;14.30;99.90;;;;;;5052716;28;20210;-70
2021/08/11 02:13:07;;;;;;;38.95;26.05;;;14.30;99.90;;;;;;5049134;28;20276;-69
2021/08/11 02:15:37;;;;;;;38.70;27.17;;;14.20;99.90;;;;;;5053793;28;20546;-69
2021/08/11 02:18:05;;;;;;;34.63;26.00;;;14.30;99.90;;;;;;5050754;28;20230;-70
2021/08/11 02:20:32;;;;;;;42.25;27.20;;;14.30;99.90;;;;;;5049678;28;20658;-69
2021/08/11 02:22:59;;;;;;;34.55;25.00;;;14.30;99.90;;;;;;5052161;28;20227;-69
2021/08/11 02:25:28;;;;;;;30.88;24.67;;;14.30;99.90;;;;;;5045073;28;20657;-68
2021/08/11 02:28:01;;;;;;;32.90;25.50;;;14.30;99.90;;;;;;5051469;28;20230;-68
2021/08/11 02:30:36;;;;;;;35.30;26.13;;;14.30;99.90;;;;;;5035112;28;20204;-69
2021/08/11 02:33:09;;;;;;;41.92;28.73;;;14.30;99.90;;;;;;5034554;28;20668;-69
2021/08/11 02:35:43;;;;;;;34.83;27.27;;;14.30;99.90;;;;;;5051816;28;20188;-67
2021/08/11 02:38:15;;;;;;;33.53;25.65;;;14.30;99.90;;;;;;5034472;28;20232;-68
2021/08/11 02:40:49;;;;;;;36.30;28.00;;;14.30;99.90;;;;;;5052509;28;20196;-69
2021/08/11 02:43:22;;;;;;;41.47;27.77;;;14.40;99.90;;;;;;5052023;28;20565;-69
2021/08/11 02:45:55;;;;;;;32.75;26.25;;;14.40;99.90;;;;;;5034468;28;20199;-68
2021/08/11 02:48:23;;;;;;;40.92;27.80;;;14.40;99.90;;;;;;5038115;28;20223;-68
2021/08/11 02:50:53;;;;;;;39.83;28.27;;;14.40;99.90;;;;;;5050721;28;20199;-68
2021/08/11 02:53:23;;;;;;;38.10;28.15;;;14.40;99.90;;;;;;5058279;28;20646;-68
2021/08/11 02:55:52;;;;;;;38.95;26.83;;;14.30;99.90;;;;;;5055535;28;20210;-68
2021/08/11 02:58:20;;;;;;;36.35;25.67;;;14.30;99.90;;;;;;5055989;28;20222;-69
2021/08/11 03:00:49;;;;;;;40.03;27.80;;;14.30;99.90;;;;;;5054078;28;20204;-69
2021/08/11 03:03:17;;;;;;;34.92;26.42;;;14.30;99.90;;;;;;5055822;28;20211;-68
2021/08/11 03:05:45;;;;;;;42.92;28.35;;;14.30;99.90;;;;;;5056468;28;20203;-70
2021/08/11 03:08:12;;;;;;;33.17;24.42;;;14.20;99.90;;;;;;5058385;28;20215;-69
2021/08/11 03:10:40;;;;;;;34.58;24.35;;;14.20;99.90;;;;;;5056578;28;20199;-69
2021/08/11 03:13:12;;;;;;;41.92;30.25;;;14.20;99.90;;;;;;5054798;28;20199;-67
2021/08/11 03:15:41;;;;;;;38.38;27.20;;;14.20;99.90;;;;;;5055061;28;20233;-68
2021/08/11 03:18:09;;;;;;;34.47;25.85;;;14.20;99.90;;;;;;5054382;28;20226;-68
2021/08/11 03:20:38;;;;;;;46.45;29.25;;;14.20;99.90;;;;;;5056342;28;20199;-70
2021/08/11 03:23:05;;;;;;;39.42;28.00;;;14.10;99.90;;;;;;5054050;28;20235;-68
2021/08/11 03:25:33;;;;;;;40.80;27.80;;;14.10;99.90;;;;;;5048444;28;20256;-69
2021/08/11 03:28:01;;;;;;;44.25;29.75;;;14.10;99.90;;;;;;5066711;28;20235;-69
2021/08/11 03:30:30;;;;;;;34.90;26.42;;;14.10;99.90;;;;;;5049089;28;20296;-69
2021/08/11 03:32:57;;;;;;;36.63;27.20;;;14.10;99.90;;;;;;5058992;28;20199;-69
2021/08/11 03:35:25;;;;;;;43.30;27.17;;;14.00;99.90;;;;;;5053263;28;20197;-70
2021/08/11 03:37:52;;;;;;;40.03;28.00;;;14.00;99.90;;;;;;5055323;28;20238;-69
2021/08/11 03:40:21;;;;;;;38.42;27.02;;;14.00;99.90;;;;;;5055121;28;20222;-70
2021/08/11 03:42:48;;;;;;;38.00;28.08;;;14.00;99.90;;;;;;5054548;28;20644;-70
2021/08/11 03:45:15;;;;;;;40.47;27.45;;;14.00;99.90;;;;;;5055279;28;20207;-67
2021/08/11 03:47:44;;;;;;;50.17;28.83;;;14.00;99.90;;;;;;5055021;28;20586;-71
2021/08/11 03:50:13;;;;;;;42.08;28.38;;;13.90;99.90;;;;;;5055032;28;20208;-69
2021/08/11 03:52:40;;;;;;;46.03;28.15;;;14.00;99.90;;;;;;5052426;28;21482;-68
2021/08/11 03:55:08;;;;;;;35.38;26.73;;;13.90;99.90;;;;;;5060484;28;20206;-68
2021/08/11 03:57:35;;;;;;;40.55;28.27;;;13.90;99.90;;;;;;5053068;28;20226;-68
2021/08/11 04:00:03;;;;;;;38.30;27.95;;;13.90;99.90;;;;;;5053628;28;20206;-69
2021/08/11 04:02:30;;;;;;;43.67;28.10;;;13.90;99.90;;;;;;5053928;28;20234;-69
2021/08/11 04:04:59;;;;;;;44.92;29.80;;;13.90;99.90;;;;;;5053223;28;20211;-69
2021/08/11 04:07:26;;;;;;;35.15;27.67;;;13.90;99.90;;;;;;5053725;28;20211;-69
2021/08/11 04:09:53;;;;;;;40.10;28.25;;;14.00;99.90;;;;;;5051118;28;20200;-69
2021/08/11 04:12:20;;;;;;;42.17;29.60;;;14.00;99.90;;;;;;5053329;28;20198;-69
2021/08/11 04:14:48;;;;;;;41.15;25.70;;;13.90;99.90;;;;;;5052370;28;20200;-68
2021/08/11 04:17:15;;;;;;;40.10;27.40;;;13.90;99.90;;;;;;5053475;28;20218;-69
2021/08/11 04:19:42;;;;;;;32.67;24.30;;;13.90;99.90;;;;;;5053177;28;20199;-70
2021/08/11 04:22:11;;;;;;;36.10;24.85;;;14.00;99.90;;;;;;5055222;28;20202;-70
2021/08/11 04:24:38;;;;;;;39.50;26.48;;;14.00;99.90;;;;;;5058828;28;20707;-70
2021/08/11 04:27:05;;;;;;;48.90;30.35;;;14.00;99.90;;;;;;5054353;28;20219;-70
2021/08/11 04:29:32;;;;;;;33.08;26.08;;;14.00;99.90;;;;;;5055468;28;20234;-71
2021/08/11 04:32:00;;;;;;;40.38;25.92;;;14.10;99.90;;;;;;5054180;28;20203;-70
2021/08/11 04:34:27;;;;;;;27.48;20.95;;;14.10;99.90;;;;;;5054981;28;20214;-70
2021/08/11 04:37:39;;;;;;;23.90;20.83;;;14.30;99.90;;;;;;5055777;28;20200;-68
2021/08/11 04:40:10;;;;;;;34.90;21.20;;;14.40;99.90;;;;;;5066643;28;20679;-70
2021/08/11 04:42:38;;;;;;;23.05;18.98;;;14.40;99.90;;;;;;5053278;28;20238;-70
2021/08/11 04:45:07;;;;;;;32.28;22.83;;;14.50;99.90;;;;;;5060216;28;20205;-70
2021/08/11 04:47:34;;;;;;;27.83;22.15;;;14.40;99.90;;;;;;5046259;28;20247;-70
2021/08/11 04:50:01;;;;;;;25.67;20.98;;;14.40;99.90;;;;;;5050894;28;20666;-70
2021/08/11 04:52:28;;;;;;;24.30;19.85;;;14.50;99.90;;;;;;5051623;28;20211;-71
2021/08/11 04:54:56;;;;;;;23.25;19.52;;;14.60;99.90;;;;;;5044098;28;20208;-69
2021/08/11 04:57:25;;;;;;;24.02;19.55;;;14.80;99.90;;;;;;5050916;28;20199;-70
2021/08/11 04:59:52;;;;;;;22.70;18.02;;;14.90;99.90;;;;;;5048378;28;20208;-69
2021/08/11 05:02:19;;;;;;;24.45;20.02;;;15.10;99.90;;;;;;5053783;28;20207;-69
2021/08/11 05:04:46;;;;;;;18.77;16.75;;;15.30;99.90;;;;;;5047450;28;20204;-69
2021/08/11 05:07:13;;;;;;;17.98;15.88;;;15.80;99.90;;;;;;5043726;28;20221;-69
2021/08/11 05:09:41;;;;;;;21.00;16.13;;;16.40;99.90;;;;;;5045030;28;20214;-69
2021/08/11 05:12:08;;;;;;;18.02;15.55;;;16.60;99.90;;;;;;5044893;28;20207;-70
2021/08/11 05:14:37;;;;;;;19.38;16.15;;;16.50;99.90;;;;;;5046716;28;20196;-70
2021/08/11 05:17:04;;;;;;;21.02;16.40;;;16.30;99.90;;;;;;5045875;28;20212;-69
2021/08/11 05:19:32;;;;;;;21.55;19.33;;;16.00;99.90;;;;;;5050219;28;20233;-70
2021/08/11 05:21:59;;;;;;;22.05;18.70;;;16.10;99.90;;;;;;5046918;28;20215;-70
2021/08/11 05:24:26;;;;;;;21.50;18.42;;;16.10;99.90;;;;;;5046936;28;20347;-71
2021/08/11 05:26:54;;;;;;;23.70;18.45;;;16.00;99.90;;;;;;5049976;28;20207;-71
2021/08/11 05:29:21;;;;;;;25.83;22.48;;;16.10;99.90;;;;;;5049519;28;20224;-70
2021/08/11 05:31:50;;;;;;;20.83;16.95;;;16.30;99.90;;;;;;5054360;28;20206;-71
2021/08/11 05:34:17;;;;;;;22.17;17.23;;;16.40;99.90;;;;;;5046940;28;20247;-70
2021/08/11 05:36:44;;;;;;;19.75;16.73;;;16.30;99.90;;;;;;5051710;28;20210;-70
2021/08/11 05:39:16;;;;;;;17.33;15.20;;;16.20;99.90;;;;;;5054968;28;20703;-71
2021/08/11 05:41:43;;;;;;;16.67;13.82;;;16.30;99.90;;;;;;5048984;28;20201;-70
2021/08/11 05:44:23;;;;;;;17.57;14.70;;;17.00;99.90;;;;;;5047954;28;20213;-71
2021/08/11 05:46:52;;;;;;;18.27;14.80;;;17.90;99.90;;;;;;5045788;28;20458;-71
2021/08/11 05:49:19;;;;;;;15.70;13.83;;;19.00;99.90;;;;;;5048884;28;20462;-71
2021/08/11 05:51:46;;;;;;;21.03;17.20;;;19.80;99.90;;;;;;5050985;28;20454;-71
2021/08/11 05:54:13;;;;;;;15.90;14.30;;;20.70;99.90;;;;;;5052417;28;20443;-70
2021/08/11 05:56:41;;;;;;;20.23;15.33;;;21.50;99.90;;;;;;5049344;28;20468;-70
2021/08/11 05:59:08;;;;;;;13.80;12.40;;;21.90;99.90;;;;;;5046482;28;20478;-68
2021/08/11 06:01:35;;;;;;;15.90;12.37;;;22.40;99.90;;;;;;5037423;28;20443;-69
2021/08/11 06:04:04;;;;;;;13.33;10.80;;;22.80;99.90;;;;;;5043245;28;20477;-70
2021/08/11 06:06:31;;;;;;;19.03;16.40;;;23.30;99.90;;;;;;5052571;28;20450;-70
2021/08/11 06:08:59;;;;;;;17.07;12.73;;;23.40;99.90;;;;;;5047319;28;20552;-70
2021/08/11 06:11:26;;;;;;;14.40;13.03;;;23.70;99.90;;;;;;5047283;28;20448;-71
2021/08/11 06:13:53;;;;;;;16.30;14.60;;;24.10;99.90;;;;;;5049422;28;20944;-70
2021/08/11 06:16:20;;;;;;;13.50;11.20;;;24.30;99.40;;;;;;5048709;28;20535;-70
2021/08/11 06:18:48;;;;;;;11.00;10.00;;;24.50;99.30;;;;;;5047711;28;20552;-72
2021/08/11 06:21:17;;;;;;;10.83;9.73;;;24.80;98.60;;;;;;5051874;28;20798;-71
2021/08/11 06:23:45;;;;;;;10.00;9.00;;;24.80;97.20;;;;;;5050736;28;20474;-71
2021/08/11 06:26:13;;;;;;;13.33;9.50;;;25.20;96.90;;;;;;5050834;28;20457;-71
2021/08/11 06:28:40;;;;;;;15.93;10.30;;;25.80;95.70;;;;;;5050108;28;20472;-71
2021/08/11 06:31:08;;;;;;;16.23;12.27;;;25.90;95.40;;;;;;5052707;28;20446;-71
2021/08/11 06:33:35;;;;;;;14.87;11.73;;;25.90;95.10;;;;;;5053399;28;20812;-70
2021/08/11 06:36:02;;;;;;;13.43;11.20;;;25.00;95.90;;;;;;5051768;28;20769;-72
2021/08/11 06:38:31;;;;;;;16.63;14.73;;;24.40;97.50;;;;;;5050428;28;20836;-72
2021/08/11 06:40:58;;;;;;;13.47;12.13;;;24.00;98.40;;;;;;5046867;28;20447;-71
2021/08/11 06:43:25;;;;;;;17.50;13.67;;;24.00;99.70;;;;;;5051191;28;20477;-72
2021/08/11 06:45:52;;;;;;;19.53;15.53;;;24.70;98.60;;;;;;5050327;28;20959;-72
2021/08/11 06:48:19;;;;;;;16.57;13.27;;;25.40;97.10;;;;;;5051185;28;20517;-72
2021/08/11 06:50:47;;;;;;;11.50;10.23;;;26.00;95.80;;;;;;5051943;28;20504;-71
2021/08/11 06:53:14;;;;;;;12.70;9.30;;;26.30;94.60;;;;;;5049166;28;20438;-71
2021/08/11 06:55:42;;;;;;;13.33;10.97;;;26.50;94.60;;;;;;5051135;28;20445;-70
2021/08/11 06:58:10;;;;;;;15.60;10.87;;;26.90;93.60;;;;;;5052878;28;20898;-71
2021/08/11 07:00:38;;;;;;;12.77;10.87;;;26.80;93.70;;;;;;5051197;28;20446;-71
2021/08/11 07:03:05;;;;;;;11.80;10.10;;;27.20;93.30;;;;;;5051905;28;20438;-70
2021/08/11 07:05:32;;;;;;;15.07;11.10;;;27.70;93.10;;;;;;5052678;28;20446;-71
2021/08/11 07:07:59;;;;;;;12.53;11.23;;;27.90;92.00;;;;;;5050025;28;20971;-72
2021/08/11 07:10:26;;;;;;;15.70;12.70;;;27.70;92.40;;;;;;5050558;28;20465;-73
2021/08/11 07:12:55;;;;;;;11.23;9.43;;;27.90;91.80;;;;;;5051383;28;20450;-73
2021/08/11 07:15:22;;;;;;;10.60;9.50;;;27.70;91.90;;;;;;5051198;28;20442;-72
2021/08/11 07:17:54;;;;;;;11.93;9.53;;;27.90;92.00;;;;;;5050437;28;20470;-71
2021/08/11 07:20:23;;;;;;;17.73;13.70;;;27.80;91.60;;;;;;5050429;28;20442;-73
2021/08/11 07:22:51;;;;;;;16.33;13.43;;;27.70;91.60;;;;;;5051300;28;20445;-71
2021/08/11 07:25:19;;;;;;;13.23;10.87;;;27.90;91.60;;;;;;5049469;28;20573;-72
2021/08/11 07:27:46;;;;;;;14.97;11.77;;;28.30;91.30;;;;;;5051014;28;20474;-70
2021/08/11 07:30:16;;;;;;;11.17;10.07;;;28.20;91.00;;;;;;5050716;28;20447;-70
2021/08/11 07:32:43;;;;;;;14.30;8.70;;;27.80;91.80;;;;;;5048592;28;20442;-72
2021/08/11 07:35:12;;;;;;;17.20;11.47;;;28.30;91.80;;;;;;5050038;28;20449;-71
2021/08/11 07:37:50;;;;;;;11.10;9.17;;;28.10;90.70;;;;;;5052377;28;20834;-70
2021/08/11 07:40:18;;;;;;;10.03;8.10;;;27.70;91.20;;;;;;5053829;28;20450;-70
2021/08/11 07:42:46;;;;;;;8.57;7.40;;;28.10;91.50;;;;;;5055145;28;20453;-70
2021/08/11 07:45:16;;;;;;;12.13;9.30;;;27.90;91.10;;;;;;5054141;28;20492;-70
2021/08/11 07:47:46;;;;;;;11.67;9.50;;;27.50;91.40;;;;;;5055365;28;20478;-70
2021/08/11 07:50:15;;;;;;;11.70;8.70;;;27.20;92.10;;;;;;5058376;28;20461;-70
2021/08/11 07:52:43;;;;;;;11.43;9.20;;;26.50;93.20;;;;;;5055416;28;20464;-72
2021/08/11 07:55:10;;;;;;;12.03;7.47;;;26.20;93.00;;;;;;5060012;28;20582;-71
2021/08/11 07:57:38;;;;;;;12.40;9.23;;;26.40;93.90;;;;;;5054118;28;20461;-70
2021/08/11 08:00:06;;;;;;;10.30;9.30;;;27.00;93.60;;;;;;5054312;28;20948;-72
2021/08/11 08:02:35;;;;;;;13.90;9.17;;;28.00;92.30;;;;;;5054915;28;20795;-71
2021/08/11 08:05:02;;;;;;;9.97;7.63;;;28.10;90.40;;;;;;5054563;28;20852;-71
2021/08/11 08:07:30;;;;;;;7.53;5.43;;;28.30;90.40;;;;;;5053710;28;20462;-70
2021/08/11 08:09:57;;;;;;;18.97;9.40;;;28.10;90.20;;;;;;5053462;28;20461;-72
2021/08/11 08:12:24;;;;;;;10.70;7.30;;;27.70;90.90;;;;;;5054374;28;20451;-71
2021/08/11 08:14:51;;;;;;;7.50;6.73;;;27.30;91.70;;;;;;5053723;28;20445;-72
2021/08/11 08:17:19;;;;;;;11.80;6.70;;;27.00;91.80;;;;;;5054382;28;20458;-71
2021/08/11 08:19:47;;;;;;;12.10;7.70;;;26.60;92.10;;;;;;5053006;28;20458;-72
2021/08/11 08:22:16;;;;;;;9.50;6.37;;;26.30;92.80;;;;;;5054735;28;20442;-71
2021/08/11 08:24:43;;;;;;;6.10;5.10;;;26.70;92.20;;;;;;5053600;28;20508;-71
2021/08/11 08:27:10;;;;;;;7.83;5.50;;;27.30;91.90;;;;;;5054382;28;20457;-70
2021/08/11 08:29:38;;;;;;;7.23;6.50;;;27.70;90.80;;;;;;5054664;28;20818;-71
2021/08/11 08:32:06;;;;;;;17.77;13.13;;;27.50;90.90;;;;;;5053503;28;21026;-71
2021/08/11 08:34:33;;;;;;;15.20;11.10;;;27.60;90.60;;;;;;5053744;28;20929;-72
2021/08/11 08:37:02;;;;;;;13.30;11.67;;;27.70;90.90;;;;;;5052971;28;20537;-70
2021/08/11 08:39:29;;;;;;;14.40;12.10;;;27.80;90.10;;;;;;5053507;28;20484;-72
2021/08/11 08:41:57;;;;;;;9.23;6.57;;;27.80;90.80;;;;;;5052803;28;20458;-70
2021/08/11 08:44:25;;;;;;;10.07;5.70;;;27.80;90.70;;;;;;5052397;28;20476;-71
2021/08/11 08:46:53;;;;;;;6.97;5.00;;;28.80;89.30;;;;;;5052064;28;20446;-72
2021/08/11 08:49:20;;;;;;;7.70;5.20;;;29.70;86.60;;;;;;5051167;28;20458;-72
2021/08/11 08:51:50;;;;;;;6.83;5.03;;;30.20;83.20;;;;;;5052380;28;20812;-72
2021/08/11 08:54:23;;;;;;;8.13;5.77;;;30.90;83.20;;;;;;5047812;28;20434;-72
2021/08/11 08:56:50;;;;;;;6.00;4.90;;;30.50;83.00;;;;;;5048979;28;20604;-71
2021/08/11 08:59:17;;;;;;;6.63;4.50;;;30.40;79.50;;;;;;5051729;28;20462;-71
2021/08/11 09:01:44;;;;;;;11.20;6.47;;;30.30;81.10;;;;;;5049453;28;20786;-72
2021/08/11 09:04:12;;;;;;;5.37;4.70;;;30.00;80.90;;;;;;5057616;28;20847;-72
2021/08/11 09:07:06;;;;;;;6.27;5.30;;;29.30;80.80;;;;;;5054055;28;20445;-70
2021/08/11 09:09:39;;;;;;;15.80;10.00;;;29.70;81.50;;;;;;5053968;28;20438;-69
2021/08/11 09:12:11;;;;;;;7.40;5.43;;;29.20;81.70;;;;;;5054352;28;20822;-72
2021/08/11 09:14:39;;;;;;;15.73;13.43;;;28.40;82.80;;;;;;5054336;28;20434;-71
2021/08/11 09:17:06;;;;;;;9.63;7.20;;;28.00;84.20;;;;;;5061710;28;20458;-71
2021/08/11 09:19:41;;;;;;;8.23;5.73;;;27.40;85.90;;;;;;5052336;28;20488;-71
2021/08/11 09:22:11;;;;;;;7.73;6.00;;;27.10;88.70;;;;;;5051570;28;20799;-69
2021/08/11 09:24:40;;;;;;;7.57;5.00;;;27.40;87.80;;;;;;5052574;28;20470;-71
2021/08/11 09:27:20;;;;;;;7.33;5.47;;;28.00;86.60;;;;;;5052844;28;20460;-73
2021/08/11 09:30:09;;;;;;;7.60;5.60;;;28.40;86.10;;;;;;5053170;28;20530;-71
2021/08/11 09:32:54;;;;;;;12.87;5.63;;;28.70;84.00;;;;;;5050767;28;20482;-71
2021/08/11 09:35:23;;;;;;;7.80;6.10;;;28.50;83.00;;;;;;5048358;28;20517;-72
2021/08/11 09:37:52;;;;;;;10.57;5.97;;;28.40;84.20;;;;;;5060238;28;20473;-71
2021/08/11 09:40:22;;;;;;;7.83;6.10;;;28.10;85.80;;;;;;5051728;28;20936;-71
2021/08/11 09:42:53;;;;;;;7.60;6.00;;;28.40;86.80;;;;;;5053439;28;20442;-72
2021/08/11 09:45:22;;;;;;;6.10;5.20;;;28.80;85.10;;;;;;5051816;28;20481;-70
2021/08/11 09:48:00;;;;;;;8.53;5.57;;;28.70;85.00;;;;;;5051601;28;20978;-71
2021/08/11 09:50:45;;;;;;;11.90;6.10;;;28.10;85.00;;;;;;5047008;28;20853;-71
2021/08/11 09:53:12;;;;;;;12.47;6.27;;;28.20;85.80;;;;;;5036818;28;20449;-70
2021/08/11 09:56:02;;;;;;;9.13;7.17;;;28.10;86.60;;;;;;5052489;28;20450;-71
2021/08/11 09:58:30;;;;;;;5.10;4.50;;;27.70;86.80;;;;;;5031336;28;20931;-71
2021/08/11 10:00:57;;;;;;;12.33;8.83;;;27.00;88.10;;;;;;5054813;28;20457;-73
2021/08/11 10:03:24;;;;;;;9.97;7.93;;;27.10;88.90;;;;;;5050416;28;20446;-71
2021/08/11 10:05:53;;;;;;;7.70;7.00;;;26.80;88.90;;;;;;5052055;28;20482;-71
2021/08/11 10:08:31;;;;;;;12.17;9.60;;;26.50;90.10;;;;;;5055959;28;20475;-71
2021/08/11 10:11:01;;;;;;;7.27;5.90;;;26.00;90.50;;;;;;5050209;28;20459;-71
2021/08/11 10:13:32;;;;;;;5.40;4.40;;;26.10;91.30;;;;;;5050562;28;20493;-71
2021/08/11 10:15:59;;;;;;;6.03;4.70;;;26.50;90.80;;;;;;5047908;28;20460;-69
2021/08/11 10:18:28;;;;;;;6.20;4.90;;;26.50;90.90;;;;;;5051456;28;20470;-71
2021/08/11 10:20:58;;;;;;;6.90;4.73;;;26.50;90.40;;;;;;5052878;28;20446;-72
2021/08/11 10:23:25;;;;;;;11.20;5.30;;;27.10;90.90;;;;;;5054516;28;20474;-71
2021/08/11 10:25:53;;;;;;;5.40;4.90;;;27.60;89.40;;;;;;5049498;28;20482;-71
2021/08/11 10:28:23;;;;;;;4.87;4.37;;;28.20;88.00;;;;;;5051573;28;20482;-70
2021/08/11 10:30:52;;;;;;;6.13;4.50;;;28.60;85.90;;;;;;5050665;28;20925;-70
2021/08/11 10:33:19;;;;;;;7.37;4.40;;;28.60;83.60;;;;;;5051056;28;20452;-71
2021/08/11 10:35:48;;;;;;;6.00;4.53;;;28.10;84.00;;;;;;5055069;28;20442;-70
2021/08/11 10:38:16;;;;;;;6.60;4.50;;;28.10;85.50;;;;;;5049949;28;20470;-71
2021/08/11 10:40:53;;;;;;;7.30;4.53;;;27.50;86.40;;;;;;5046712;28;20449;-71
2021/08/11 10:43:22;;;;;;;8.50;4.50;;;27.30;87.40;;;;;;5032588;28;20850;-71
2021/08/11 10:46:01;;;;;;;5.50;4.07;;;27.30;88.70;;;;;;5043885;28;20513;-71
2021/08/11 10:48:29;;;;;;;6.77;4.50;;;27.20;89.60;;;;;;5041031;28;20969;-71
2021/08/11 10:50:56;;;;;;;5.37;4.47;;;26.80;89.90;;;;;;5045011;28;20439;-71
2021/08/11 10:53:23;;;;;;;6.40;4.73;;;26.70;90.20;;;;;;5047137;28;20446;-71
2021/08/11 10:55:52;;;;;;;6.97;5.10;;;26.50;90.80;;;;;;5048082;28;20434;-73
2021/08/11 10:58:41;;;;;;;7.87;5.77;;;26.30;90.40;;;;;;5046577;28;20454;-71
2021/08/11 11:01:33;;;;;;;7.07;5.33;;;25.80;91.10;;;;;;5029386;28;20503;-71
2021/08/11 11:04:01;;;;;;;10.67;6.23;;;25.60;92.10;;;;;;5033126;28;20464;-72
2021/08/11 11:06:52;;;;;;;7.93;5.33;;;26.00;91.90;;;;;;5050810;28;20514;-72
2021/08/11 11:09:21;;;;;;;8.20;5.70;;;25.70;91.60;;;;;;5049398;28;21243;-71
2021/08/11 11:11:48;;;;;;;9.10;5.53;;;25.70;92.30;;;;;;5051993;28;20449;-71
2021/08/11 11:14:51;;;;;;;10.63;5.97;;;26.20;92.10;;;;;;5054510;28;20441;-71
2021/08/11 11:17:20;;;;;;;6.40;5.03;;;26.40;90.90;;;;;;5054109;28;20936;-72
2021/08/11 11:20:29;;;;;;;6.03;4.67;;;26.60;91.20;;;;;;5054311;28;20446;-70
2021/08/11 11:23:07;;;;;;;7.60;5.87;;;26.70;90.70;;;;;;5047650;28;20457;-72
2021/08/11 11:26:05;;;;;;;12.37;7.23;;;26.80;90.40;;;;;;5047556;28;20482;-73
2021/08/11 11:28:52;;;;;;;8.00;5.80;;;27.10;90.60;;;;;;5053275;28;20470;-73
2021/08/11 11:31:37;;;;;;;8.43;6.10;;;26.80;90.70;;;;;;5048206;28;20441;-71
2021/08/11 11:34:38;;;;;;;5.10;4.60;;;26.50;90.70;;;;;;5044566;28;20790;-71
2021/08/11 11:37:25;;;;;;;6.20;5.40;;;26.30;90.50;;;;;;5050028;28;20437;-72
2021/08/11 11:40:10;;;;;;;5.03;4.50;;;25.60;91.40;;;;;;5050675;28;20465;-72
2021/08/11 11:42:37;;;;;;;5.70;4.87;;;26.00;92.10;;;;;;5048314;28;20449;-72
2021/08/11 11:45:07;;;;;;;8.13;5.67;;;26.20;91.60;;;;;;5048379;28;20486;-71
2021/08/11 11:48:11;;;;;;;7.97;5.90;;;26.50;91.40;;;;;;5052619;28;20464;-71
2021/08/11 11:50:45;;;;;;;6.03;5.40;;;26.60;90.60;;;;;;5044089;28;20460;-71
2021/08/11 11:53:27;;;;;;;9.63;5.00;;;26.50;90.00;;;;;;5035307;28;20967;-72
2021/08/11 11:55:54;;;;;;;5.57;4.60;;;25.90;90.80;;;;;;5054560;28;20448;-71
2021/08/11 11:58:23;;;;;;;6.10;4.80;;;26.00;91.30;;;;;;5054238;28;20491;-70
2021/08/11 12:01:00;;;;;;;8.03;5.20;;;26.20;90.90;;;;;;5054956;28;20831;-71
2021/08/11 12:03:38;;;;;;;7.47;5.17;;;26.30;90.90;;;;;;5053687;28;20483;-72
2021/08/11 12:06:07;;;;;;;6.97;5.70;;;26.10;91.10;;;;;;5055689;28;20514;-71
2021/08/11 12:08:34;;;;;;;7.43;6.07;;;25.80;90.80;;;;;;5053985;28;20825;-71
2021/08/11 12:11:08;;;;;;;6.13;5.00;;;25.70;91.90;;;;;;5054724;28;20455;-72
2021/08/11 12:13:46;;;;;;;6.67;4.50;;;26.00;91.70;;;;;;5053318;28;20849;-70
2021/08/11 12:16:14;;;;;;;7.87;5.30;;;26.10;91.50;;;;;;5049671;28;20450;-71
2021/08/11 12:18:42;;;;;;;7.50;5.50;;;26.30;91.10;;;;;;5054384;28;20470;-71
2021/08/11 12:21:11;;;;;;;6.10;5.33;;;26.50;91.10;;;;;;5054161;28;20458;-70
2021/08/11 12:23:39;;;;;;;8.03;4.73;;;26.40;91.80;;;;;;5052860;28;20434;-71
2021/08/11 12:26:12;;;;;;;7.90;5.33;;;26.20;91.10;;;;;;5054291;28;20482;-71
2021/08/11 12:28:43;;;;;;;6.80;5.27;;;25.90;90.60;;;;;;5053183;28;20823;-70
2021/08/11 12:31:12;;;;;;;8.80;4.30;;;25.50;91.30;;;;;;5059486;28;20540;-70
2021/08/11 12:33:42;;;;;;;6.20;4.67;;;25.50;91.70;;;;;;5052557;28;20454;-70
2021/08/11 12:36:17;;;;;;;9.37;5.47;;;25.50;92.00;;;;;;5054204;28;20457;-70
2021/08/11 12:39:00;;;;;;;6.37;5.00;;;25.10;92.10;;;;;;5035102;28;20543;-71
2021/08/11 12:41:28;;;;;;;5.83;4.97;;;25.10;92.10;;;;;;5053451;28;20789;-71
2021/08/11 12:43:57;;;;;;;6.33;4.90;;;25.40;92.20;;;;;;5051748;28;20454;-72
2021/08/11 12:46:51;;;;;;;9.03;5.77;;;25.60;92.20;;;;;;5050399;28;20485;-70
2021/08/11 12:49:20;;;;;;;5.37;4.87;;;25.70;91.50;;;;;;5051756;28;21200;-71